PVV9805 LDZA-LFSB
Flight info
| Callsign | PVV9805 |
|---|---|
| Flight time | N/A |
| Altitude | 32000 |
| Route | PODET1T/22 PODET DCT KLAGY DCT NANIT DCT ERKIR DCT KPT L856 TRA T718 RIGVI |
| Aircraft | B742/H-SDFHIRWXY/L |
Departure
| Time | N/A |
|---|---|
| Airport | Zagreb Franjo Tuđman International Airport (LDZA) |
Arrival
| Time | 2026-05-07 15:56 |
|---|---|
| Airport | EuroAirport Basel–Mulhouse–Freiburg (LFSB) |
| Time | Latitude | Longitude | Altitude | Speed | Heading |
|---|---|---|---|---|---|
| 2026-05-07 15:01 | 47.05634 | 13.30461 | 32032 ft | 401 kts | 301° |
| 2026-05-07 15:02 | 47.11787 | 13.13063 | 32032 ft | 402 kts | 301° |
| 2026-05-07 15:02 | 47.13341 | 13.08692 | 32031 ft | 401 kts | 300° |
| 2026-05-07 15:03 | 47.15911 | 13.01462 | 32031 ft | 401 kts | 300° |
| 2026-05-07 15:03 | 47.18451 | 12.94304 | 32032 ft | 402 kts | 299° |
| 2026-05-07 15:04 | 47.21010 | 12.87073 | 32032 ft | 402 kts | 299° |
| 2026-05-07 15:04 | 47.23541 | 12.79903 | 32032 ft | 402 kts | 299° |
| 2026-05-07 15:05 | 47.26093 | 12.72654 | 32032 ft | 402 kts | 299° |
| 2026-05-07 15:05 | 47.28638 | 12.65408 | 32034 ft | 402 kts | 299° |
| 2026-05-07 15:06 | 47.31168 | 12.58180 | 32037 ft | 402 kts | 299° |
| 2026-05-07 15:06 | 47.33699 | 12.50935 | 32036 ft | 402 kts | 299° |
| 2026-05-07 15:07 | 47.36229 | 12.43670 | 32035 ft | 402 kts | 299° |
| 2026-05-07 15:07 | 47.38760 | 12.36398 | 32041 ft | 402 kts | 300° |
| 2026-05-07 15:08 | 47.41412 | 12.29345 | 32052 ft | 403 kts | 296° |
| 2026-05-07 15:08 | 47.43512 | 12.21725 | 32059 ft | 404 kts | 293° |
| 2026-05-07 15:09 | 47.45253 | 12.13854 | 32045 ft | 408 kts | 286° |
| 2026-05-07 15:09 | 47.46243 | 12.05676 | 32025 ft | 409 kts | 283° |
| 2026-05-07 15:10 | 47.47140 | 11.97422 | 32005 ft | 410 kts | 283° |
| 2026-05-07 15:10 | 47.48022 | 11.89239 | 32002 ft | 409 kts | 283° |
| 2026-05-07 15:11 | 47.48906 | 11.81034 | 32002 ft | 409 kts | 283° |
| 2026-05-07 15:11 | 47.49792 | 11.72807 | 32002 ft | 409 kts | 283° |
| 2026-05-07 15:12 | 47.50672 | 11.64626 | 32002 ft | 409 kts | 283° |
| 2026-05-07 15:12 | 47.51564 | 11.56326 | 32002 ft | 409 kts | 283° |
| 2026-05-07 15:13 | 47.52442 | 11.48139 | 32002 ft | 409 kts | 283° |
| 2026-05-07 15:13 | 47.53326 | 11.39924 | 32003 ft | 409 kts | 284° |
| 2026-05-07 15:14 | 47.54188 | 11.31879 | 32006 ft | 410 kts | 283° |
| 2026-05-07 15:14 | 47.55044 | 11.23783 | 32008 ft | 409 kts | 283° |
| 2026-05-07 15:15 | 47.55910 | 11.15540 | 32017 ft | 409 kts | 283° |
| 2026-05-07 15:15 | 47.56910 | 11.07389 | 32025 ft | 408 kts | 285° |
| 2026-05-07 15:16 | 47.57984 | 10.99297 | 32031 ft | 408 kts | 285° |
| 2026-05-07 15:16 | 47.59077 | 10.91305 | 32032 ft | 409 kts | 285° |
| 2026-05-07 15:17 | 47.60235 | 10.83199 | 32031 ft | 410 kts | 285° |
| 2026-05-07 15:17 | 47.61428 | 10.75153 | 32032 ft | 411 kts | 285° |
| 2026-05-07 15:18 | 47.62660 | 10.66965 | 32031 ft | 411 kts | 285° |
| 2026-05-07 15:18 | 47.63885 | 10.58836 | 32031 ft | 410 kts | 285° |
| 2026-05-07 15:19 | 47.64948 | 10.50684 | 32032 ft | 411 kts | 283° |
| 2026-05-07 15:19 | 47.65960 | 10.42410 | 32031 ft | 411 kts | 283° |
| 2026-05-07 15:20 | 47.66950 | 10.34178 | 32033 ft | 412 kts | 283° |
| 2026-05-07 15:20 | 47.67912 | 10.26067 | 32032 ft | 412 kts | 283° |
| 2026-05-07 15:21 | 47.68885 | 10.17820 | 32032 ft | 412 kts | 283° |
| 2026-05-07 15:21 | 47.69838 | 10.09507 | 32032 ft | 412 kts | 282° |
| 2026-05-07 15:22 | 47.70616 | 10.01253 | 32032 ft | 413 kts | 281° |
| 2026-05-07 15:22 | 47.71352 | 9.93101 | 32029 ft | 413 kts | 281° |
| 2026-05-07 15:23 | 47.72106 | 9.84722 | 31707 ft | 415 kts | 281° |
| 2026-05-07 15:23 | 47.72480 | 9.80590 | 31459 ft | 411 kts | 281° |
| 2026-05-07 15:23 | 47.72842 | 9.76547 | 31102 ft | 405 kts | 279° |
| 2026-05-07 15:24 | 47.72849 | 9.72406 | 30714 ft | 404 kts | 270° |
| 2026-05-07 15:24 | 47.72609 | 9.68413 | 30336 ft | 398 kts | 270° |
| 2026-05-07 15:24 | 47.72378 | 9.64473 | 29956 ft | 392 kts | 270° |
| 2026-05-07 15:24 | 47.72150 | 9.60437 | 29561 ft | 386 kts | 270° |
| 2026-05-07 15:25 | 47.71940 | 9.56558 | 29175 ft | 380 kts | 271° |
| 2026-05-07 15:25 | 47.71795 | 9.52691 | 28786 ft | 374 kts | 272° |
| 2026-05-07 15:25 | 47.71687 | 9.48992 | 28407 ft | 368 kts | 272° |
| 2026-05-07 15:25 | 47.71588 | 9.45215 | 28016 ft | 365 kts | 272° |
| 2026-05-07 15:26 | 47.71495 | 9.41482 | 27626 ft | 362 kts | 272° |
| 2026-05-07 15:26 | 47.71410 | 9.37849 | 27245 ft | 360 kts | 272° |
| 2026-05-07 15:26 | 47.71333 | 9.34252 | 26867 ft | 358 kts | 271° |
| 2026-05-07 15:26 | 47.71257 | 9.30679 | 26489 ft | 357 kts | 271° |
| 2026-05-07 15:27 | 47.71182 | 9.27027 | 26068 ft | 355 kts | 271° |
| 2026-05-07 15:27 | 47.71112 | 9.23448 | 25624 ft | 352 kts | 271° |
| 2026-05-07 15:27 | 47.71048 | 9.19897 | 25180 ft | 350 kts | 271° |
| 2026-05-07 15:27 | 47.70988 | 9.16350 | 24732 ft | 347 kts | 271° |
| 2026-05-07 15:28 | 47.70933 | 9.12790 | 24280 ft | 345 kts | 271° |
| 2026-05-07 15:28 | 47.70885 | 9.09291 | 23833 ft | 343 kts | 271° |
| 2026-05-07 15:28 | 47.70849 | 9.05765 | 23380 ft | 341 kts | 271° |
| 2026-05-07 15:28 | 47.70828 | 9.02294 | 22930 ft | 339 kts | 271° |
| 2026-05-07 15:29 | 47.70823 | 8.98864 | 22484 ft | 337 kts | 271° |
| 2026-05-07 15:29 | 47.70834 | 8.95390 | 22029 ft | 335 kts | 271° |
| 2026-05-07 15:29 | 47.70860 | 8.91935 | 21575 ft | 333 kts | 271° |
| 2026-05-07 15:29 | 47.70900 | 8.88556 | 21128 ft | 332 kts | 271° |
| 2026-05-07 15:30 | 47.70953 | 8.85112 | 20671 ft | 330 kts | 271° |
| 2026-05-07 15:30 | 47.71012 | 8.81752 | 20220 ft | 328 kts | 271° |
| 2026-05-07 15:30 | 47.71076 | 8.78405 | 19710 ft | 327 kts | 272° |
| 2026-05-07 15:30 | 47.71145 | 8.75044 | 19193 ft | 324 kts | 272° |
| 2026-05-07 15:31 | 47.71217 | 8.71695 | 18674 ft | 322 kts | 272° |
| 2026-05-07 15:31 | 47.71292 | 8.68389 | 18157 ft | 317 kts | 272° |
| 2026-05-07 15:31 | 47.71370 | 8.65158 | 17641 ft | 310 kts | 272° |
| 2026-05-07 15:31 | 47.71450 | 8.61977 | 17123 ft | 304 kts | 272° |
| 2026-05-07 15:32 | 47.71531 | 8.58899 | 16611 ft | 298 kts | 272° |
| 2026-05-07 15:32 | 47.71615 | 8.55856 | 16096 ft | 293 kts | 272° |
| 2026-05-07 15:32 | 47.71703 | 8.52843 | 15575 ft | 287 kts | 272° |
| 2026-05-07 15:32 | 47.71790 | 8.49910 | 15061 ft | 285 kts | 272° |
| 2026-05-07 15:33 | 47.72060 | 8.47018 | 14539 ft | 285 kts | 285° |
| 2026-05-07 15:33 | 47.72809 | 8.44328 | 14036 ft | 287 kts | 292° |
| 2026-05-07 15:33 | 47.73687 | 8.41650 | 13515 ft | 285 kts | 293° |
| 2026-05-07 15:33 | 47.74561 | 8.39041 | 13002 ft | 284 kts | 293° |
| 2026-05-07 15:34 | 47.75445 | 8.36412 | 12483 ft | 282 kts | 293° |
| 2026-05-07 15:34 | 47.76319 | 8.33814 | 11968 ft | 281 kts | 292° |
| 2026-05-07 15:34 | 47.77175 | 8.31258 | 11458 ft | 279 kts | 292° |
| 2026-05-07 15:34 | 47.78027 | 8.28686 | 10992 ft | 271 kts | 292° |
| 2026-05-07 15:35 | 47.78838 | 8.26231 | 10618 ft | 266 kts | 292° |
| 2026-05-07 15:35 | 47.79647 | 8.23750 | 10256 ft | 263 kts | 292° |
| 2026-05-07 15:35 | 47.80420 | 8.21337 | 10085 ft | 260 kts | 292° |
| 2026-05-07 15:35 | 47.81198 | 8.18871 | 10020 ft | 261 kts | 292° |
| 2026-05-07 15:36 | 47.82002 | 8.16446 | 10005 ft | 262 kts | 294° |
| 2026-05-07 15:36 | 47.82841 | 8.14041 | 10004 ft | 265 kts | 295° |
| 2026-05-07 15:36 | 47.83439 | 8.11524 | 9995 ft | 258 kts | 273° |
| 2026-05-07 15:36 | 47.83078 | 8.08900 | 10002 ft | 262 kts | 243° |
| 2026-05-07 15:37 | 47.81991 | 8.06688 | 10007 ft | 269 kts | 234° |
| 2026-05-07 15:37 | 47.80776 | 8.04589 | 9996 ft | 264 kts | 236° |
| 2026-05-07 15:37 | 47.79939 | 8.02165 | 10004 ft | 263 kts | 251° |
| 2026-05-07 15:37 | 47.79254 | 7.99671 | 9992 ft | 267 kts | 244° |
| 2026-05-07 15:38 | 47.78159 | 7.97494 | 10004 ft | 270 kts | 234° |
| 2026-05-07 15:38 | 47.76963 | 7.95490 | 10001 ft | 270 kts | 233° |
| 2026-05-07 15:38 | 47.75739 | 7.93489 | 10002 ft | 271 kts | 232° |
| 2026-05-07 15:38 | 47.74490 | 7.91450 | 10001 ft | 270 kts | 232° |
| 2026-05-07 15:39 | 47.73185 | 7.89332 | 10003 ft | 273 kts | 232° |
| 2026-05-07 15:39 | 47.71948 | 7.87336 | 10001 ft | 272 kts | 232° |
| 2026-05-07 15:39 | 47.70778 | 7.85448 | 9920 ft | 273 kts | 232° |
| 2026-05-07 15:39 | 47.69568 | 7.83482 | 9572 ft | 273 kts | 233° |
| 2026-05-07 15:40 | 47.68347 | 7.81514 | 9230 ft | 273 kts | 232° |
| 2026-05-07 15:40 | 47.67054 | 7.79439 | 8870 ft | 275 kts | 232° |
| 2026-05-07 15:40 | 47.65749 | 7.77351 | 8509 ft | 278 kts | 232° |
| 2026-05-07 15:40 | 47.64448 | 7.75269 | 8149 ft | 277 kts | 232° |
| 2026-05-07 15:41 | 47.63141 | 7.73170 | 7789 ft | 279 kts | 232° |
| 2026-05-07 15:41 | 47.61837 | 7.71069 | 7426 ft | 275 kts | 232° |
| 2026-05-07 15:41 | 47.60537 | 7.68963 | 7129 ft | 275 kts | 232° |
| 2026-05-07 15:41 | 47.59260 | 7.66887 | 7029 ft | 275 kts | 232° |
| 2026-05-07 15:42 | 47.57960 | 7.64767 | 7008 ft | 274 kts | 232° |
| 2026-05-07 15:42 | 47.56683 | 7.62685 | 7004 ft | 279 kts | 232° |
| 2026-05-07 15:42 | 47.55387 | 7.60570 | 7004 ft | 276 kts | 232° |
| 2026-05-07 15:42 | 47.54100 | 7.58472 | 7005 ft | 278 kts | 232° |
| 2026-05-07 15:43 | 47.52804 | 7.56359 | 7002 ft | 276 kts | 232° |
| 2026-05-07 15:43 | 47.51513 | 7.54258 | 7001 ft | 276 kts | 232° |
| 2026-05-07 15:43 | 47.50214 | 7.52139 | 7000 ft | 279 kts | 232° |
| 2026-05-07 15:43 | 47.48899 | 7.49994 | 7002 ft | 275 kts | 232° |
| 2026-05-07 15:44 | 47.47594 | 7.47972 | 6977 ft | 272 kts | 223° |
| 2026-05-07 15:44 | 47.45849 | 7.46654 | 6911 ft | 287 kts | 205° |
| 2026-05-07 15:44 | 47.43957 | 7.45674 | 6709 ft | 287 kts | 202° |
| 2026-05-07 15:44 | 47.42073 | 7.44741 | 6490 ft | 277 kts | 202° |
| 2026-05-07 15:45 | 47.40218 | 7.43833 | 6274 ft | 283 kts | 202° |
| 2026-05-07 15:45 | 47.38382 | 7.42928 | 6052 ft | 272 kts | 200° |
| 2026-05-07 15:45 | 47.36480 | 7.42814 | 5825 ft | 282 kts | 169° |
| 2026-05-07 15:45 | 47.34703 | 7.44183 | 5606 ft | 293 kts | 137° |
| 2026-05-07 15:46 | 47.32561 | 7.49003 | 5181 ft | 266 kts | 120° |
| 2026-05-07 15:46 | 47.31850 | 7.51388 | 5053 ft | 246 kts | 104° |
| 2026-05-07 15:46 | 47.31402 | 7.53794 | 5054 ft | 238 kts | 104° |
| 2026-05-07 15:47 | 47.31033 | 7.56188 | 5245 ft | 238 kts | 103° |
| 2026-05-07 15:47 | 47.30681 | 7.58576 | 5498 ft | 236 kts | 96° |
| 2026-05-07 15:47 | 47.30922 | 7.60907 | 5793 ft | 230 kts | 56° |
| 2026-05-07 15:47 | 47.31996 | 7.62503 | 6165 ft | 210 kts | 24° |
| 2026-05-07 15:48 | 47.33183 | 7.63410 | 6503 ft | 192 kts | 21° |
| 2026-05-07 15:48 | 47.34362 | 7.64248 | 6845 ft | 197 kts | 20° |
| 2026-05-07 15:48 | 47.35611 | 7.65154 | 6971 ft | 191 kts | 20° |
| 2026-05-07 15:48 | 47.36767 | 7.66027 | 6987 ft | 182 kts | 20° |
| 2026-05-07 15:49 | 47.37921 | 7.66698 | 6972 ft | 166 kts | 354° |
| 2026-05-07 15:49 | 47.39003 | 7.66453 | 7010 ft | 151 kts | 340° |
| 2026-05-07 15:49 | 47.39926 | 7.66015 | 6985 ft | 130 kts | 337° |
| 2026-05-07 15:49 | 47.40753 | 7.65528 | 6916 ft | 132 kts | 335° |
| 2026-05-07 15:50 | 47.41587 | 7.64980 | 6503 ft | 131 kts | 331° |
| 2026-05-07 15:50 | 47.42399 | 7.64419 | 6066 ft | 127 kts | 334° |
| 2026-05-07 15:50 | 47.43190 | 7.63869 | 5631 ft | 125 kts | 334° |
| 2026-05-07 15:50 | 47.43978 | 7.63321 | 5127 ft | 129 kts | 335° |
| 2026-05-07 15:51 | 47.44814 | 7.62745 | 4609 ft | 130 kts | 333° |
| 2026-05-07 15:51 | 47.45610 | 7.62191 | 4397 ft | 128 kts | 337° |
| 2026-05-07 15:51 | 47.46411 | 7.61639 | 4149 ft | 126 kts | 335° |
| 2026-05-07 15:51 | 47.47204 | 7.61090 | 3928 ft | 125 kts | 336° |
| 2026-05-07 15:52 | 47.47986 | 7.60548 | 3750 ft | 126 kts | 338° |
| 2026-05-07 15:52 | 47.48793 | 7.59990 | 3572 ft | 126 kts | 337° |
| 2026-05-07 15:52 | 47.49602 | 7.59429 | 3362 ft | 128 kts | 339° |
| 2026-05-07 15:52 | 47.50404 | 7.58874 | 3161 ft | 128 kts | 338° |
| 2026-05-07 15:53 | 47.51194 | 7.58328 | 2965 ft | 125 kts | 337° |
| 2026-05-07 15:53 | 47.52010 | 7.57762 | 2769 ft | 129 kts | 339° |
| 2026-05-07 15:53 | 47.52799 | 7.57216 | 2578 ft | 126 kts | 336° |
| 2026-05-07 15:53 | 47.53594 | 7.56663 | 2362 ft | 127 kts | 337° |
| 2026-05-07 15:54 | 47.54399 | 7.56105 | 2173 ft | 129 kts | 338° |
| 2026-05-07 15:54 | 47.55187 | 7.55559 | 1988 ft | 126 kts | 335° |
| 2026-05-07 15:54 | 47.55991 | 7.55001 | 1783 ft | 127 kts | 337° |
| 2026-05-07 15:54 | 47.56796 | 7.54442 | 1591 ft | 127 kts | 337° |
| 2026-05-07 15:55 | 47.57600 | 7.53883 | 1384 ft | 127 kts | 337° |
| 2026-05-07 15:55 | 47.58411 | 7.53300 | 1180 ft | 130 kts | 338° |
| 2026-05-07 15:55 | 47.59219 | 7.52757 | 984 ft | 128 kts | 338° |
| 2026-05-07 15:55 | 47.60028 | 7.52191 | 869 ft | 130 kts | 337° |
| 2026-05-07 15:56 | 47.60769 | 7.51684 | 862 ft | 107 kts | 337° |
| 2026-05-07 15:56 | 47.61276 | 7.51334 | 855 ft | 59 kts | 334° |
| 2026-05-07 15:56 | 47.61570 | 7.51130 | 855 ft | 37 kts | 335° |
| 2026-05-07 15:56 | 47.61706 | 7.51032 | 857 ft | 14 kts | 338° |
| 2026-05-07 15:57 | 47.61783 | 7.51070 | 857 ft | 11 kts | 60° |
| 2026-05-07 15:57 | 47.61807 | 7.51171 | 857 ft | 8 kts | 84° |
| 2026-05-07 15:57 | 47.61798 | 7.51242 | 857 ft | 4 kts | 121° |
| 2026-05-07 15:57 | 47.61771 | 7.51279 | 857 ft | 8 kts | 150° |
| 2026-05-07 15:58 | 47.61676 | 7.51347 | 854 ft | 21 kts | 154° |
| 2026-05-07 15:58 | 47.61511 | 7.51461 | 854 ft | 30 kts | 155° |
| 2026-05-07 15:58 | 47.61290 | 7.51615 | 852 ft | 40 kts | 155° |
| 2026-05-07 15:58 | 47.61045 | 7.51785 | 851 ft | 36 kts | 155° |
| 2026-05-07 15:59 | 47.60825 | 7.51938 | 855 ft | 33 kts | 155° |
| 2026-05-07 15:59 | 47.60617 | 7.52082 | 860 ft | 32 kts | 155° |
| 2026-05-07 15:59 | 47.60410 | 7.52226 | 862 ft | 33 kts | 155° |
| 2026-05-07 15:59 | 47.60202 | 7.52372 | 866 ft | 32 kts | 155° |
| 2026-05-07 16:00 | 47.59993 | 7.52516 | 867 ft | 33 kts | 155° |
| 2026-05-07 16:00 | 47.59787 | 7.52661 | 870 ft | 29 kts | 155° |
| 2026-05-07 16:00 | 47.59603 | 7.52787 | 872 ft | 29 kts | 155° |
| 2026-05-07 16:00 | 47.59415 | 7.52918 | 873 ft | 30 kts | 155° |
| 2026-05-07 16:01 | 47.59221 | 7.53052 | 873 ft | 31 kts | 155° |
| 2026-05-07 16:01 | 47.59022 | 7.53191 | 876 ft | 31 kts | 154° |
| 2026-05-07 16:01 | 47.58864 | 7.53302 | 877 ft | 19 kts | 155° |
| 2026-05-07 16:01 | 47.58759 | 7.53427 | 877 ft | 19 kts | 102° |
| 2026-05-07 16:02 | 47.58776 | 7.53553 | 877 ft | 10 kts | 65° |
| 2026-05-07 16:02 | 47.58814 | 7.53613 | 877 ft | 7 kts | 10° |
| 2026-05-07 16:02 | 47.58851 | 7.53638 | 877 ft | 3 kts | 65° |
| 2026-05-07 16:02 | 47.58854 | 7.53649 | 877 ft | 0 kts | 65° |